Time;durP1;ratioP1;P1;durP2;ratioP2;P2;SDS_P1;SDS_P2;PMS_P1;PMS_P2;Temp;Humidity;BMP_temperature;BMP_pressure;BME280_temperature;BME280_humidity;BME280_pressure;Samples;Min_cycle;Max_cycle;Signal;HPM_P1;HPM_P2
2021/09/10 00:01:13;;;;;;;;;4.00;4.00;;;;;24.84;56.69;100588.41;5089756;27;47908;-57
2021/09/10 00:03:39;;;;;;;;;3.00;3.00;;;;;24.85;56.18;100584.72;5080255;27;45523;-57
2021/09/10 00:06:04;;;;;;;;;2.00;2.00;;;;;24.84;56.52;100584.84;5062709;28;45418;-57
2021/09/10 00:08:30;;;;;;;;;3.00;3.00;;;;;24.83;56.46;100583.13;5079876;27;45648;-58
2021/09/10 00:10:55;;;;;;;;;2.00;2.00;;;;;24.83;56.40;100583.13;5078529;27;48025;-57
2021/09/10 00:13:21;;;;;;;;;2.00;2.00;;;;;24.82;56.59;100582.25;5079125;28;45380;-58
2021/09/10 00:15:46;;;;;;;;;3.00;3.00;;;;;24.82;56.72;100584.13;5080167;27;45252;-57
2021/09/10 00:18:11;;;;;;;;;5.00;4.00;;;;;24.81;56.42;100590.53;5062016;28;45374;-57
2021/09/10 00:20:37;;;;;;;;;1.33;1.33;;;;;24.80;56.46;100594.25;5079770;28;47473;-57
2021/09/10 00:23:03;;;;;;;;;3.00;2.67;;;;;24.79;56.60;100595.22;5061840;28;45335;-58
2021/09/10 00:25:28;;;;;;;;;4.67;3.67;;;;;24.79;56.75;100589.81;5070388;28;45456;-57
2021/09/10 00:27:54;;;;;;;;;1.00;1.00;;;;;24.79;56.75;100587.09;5073815;27;45970;-58
2021/09/10 00:30:19;;;;;;;;;3.00;3.00;;;;;24.78;56.78;100588.94;5077153;28;47078;-58
2021/09/10 00:32:45;;;;;;;;;2.00;2.00;;;;;24.77;56.70;100589.91;5088284;27;45330;-58
2021/09/10 00:35:11;;;;;;;;;3.00;2.33;;;;;24.74;56.85;100589.31;5080130;28;45332;-58
2021/09/10 00:37:37;;;;;;;;;3.33;2.67;;;;;24.72;56.51;100586.72;5080344;28;45606;-58
2021/09/10 00:40:04;;;;;;;;;4.00;3.00;;;;;24.69;57.23;100589.69;5082184;27;47176;-58
2021/09/10 00:42:30;;;;;;;;;3.00;2.67;;;;;24.68;57.22;100582.56;5073720;28;45335;-58
2021/09/10 00:44:55;;;;;;;;;3.00;2.00;;;;;24.65;57.11;100588.25;5077127;27;45328;-58
2021/09/10 00:47:21;;;;;;;;;3.00;3.00;;;;;24.66;57.00;100584.53;5042585;28;45812;-57
2021/09/10 00:49:47;;;;;;;;;3.25;3.25;;;;;24.67;57.20;100593.53;5037868;28;47331;-58
2021/09/10 00:52:12;;;;;;;;;3.00;3.00;;;;;24.66;57.69;100595.38;5039291;28;45418;-59
2021/09/10 00:54:38;;;;;;;;;2.33;1.33;;;;;24.65;57.23;100599.94;5042141;28;45412;-59
2021/09/10 00:57:03;;;;;;;;;2.00;2.00;;;;;24.65;57.13;100599.94;5039582;28;45935;-59
2021/09/10 00:59:29;;;;;;;;;2.33;2.33;;;;;24.67;57.06;100601.69;5038642;28;46135;-58
2021/09/10 01:01:54;;;;;;;;;2.00;2.00;;;;;24.67;57.48;100607.97;5037467;28;45436;-58
2021/09/10 01:04:25;;;;;;;;;4.33;3.33;;;;;24.67;57.56;100607.09;5038361;28;45427;-58
2021/09/10 01:06:53;;;;;;;;;2.25;2.25;;;;;24.67;57.17;100610.69;5039485;28;45444;-59
2021/09/10 01:09:20;;;;;;;;;4.00;4.00;;;;;24.67;57.34;100610.69;5042268;28;48515;-59
2021/09/10 01:11:47;;;;;;;;;4.00;3.00;;;;;24.68;57.42;100612.41;5037953;28;45549;-58
2021/09/10 01:14:15;;;;;;;;;2.00;2.00;;;;;24.68;57.47;100617.81;5054560;28;45724;-59
2021/09/10 01:16:41;;;;;;;;;3.00;3.00;;;;;24.69;57.43;100614.13;5025632;28;45555;-59
2021/09/10 01:19:07;;;;;;;;;2.00;2.00;;;;;24.71;57.29;100622.13;5038087;28;48115;-59
2021/09/10 01:21:32;;;;;;;;;3.00;3.00;;;;;24.71;57.60;100614.00;5038414;28;45928;-59
2021/09/10 01:23:58;;;;;;;;;2.50;2.50;;;;;24.72;57.75;100613.00;5038837;28;45378;-59
2021/09/10 01:26:23;;;;;;;;;3.00;3.00;;;;;24.72;57.38;100616.56;5039344;28;45547;-58
2021/09/10 01:28:50;;;;;;;;;3.00;3.00;;;;;24.70;57.44;100614.97;5038144;28;47229;-59
2021/09/10 01:31:15;;;;;;;;;3.33;3.00;;;;;24.71;57.52;100622.13;5032992;28;45427;-58
2021/09/10 01:33:41;;;;;;;;;5.50;4.75;;;;;24.70;57.42;100617.69;5028667;28;45340;-59
2021/09/10 01:36:08;;;;;;;;;2.25;2.25;;;;;24.67;57.45;100623.38;5037656;28;45331;-58
2021/09/10 01:38:34;;;;;;;;;3.00;2.67;;;;;24.65;57.60;100618.09;5035851;28;47473;-59
2021/09/10 01:40:59;;;;;;;;;4.00;4.00;;;;;24.64;57.76;100619.03;5045782;28;45972;-59
2021/09/10 01:43:25;;;;;;;;;3.25;3.25;;;;;24.64;57.33;100610.91;5038993;28;45457;-58
2021/09/10 01:45:50;;;;;;;;;2.67;2.33;;;;;24.63;57.57;100618.19;5045524;28;45608;-59
2021/09/10 01:48:16;;;;;;;;;3.75;3.75;;;;;24.63;57.80;100614.59;5078427;28;47349;-58
2021/09/10 01:50:41;;;;;;;;;3.00;3.00;;;;;24.62;57.86;100624.59;5050262;28;45666;-59
2021/09/10 01:53:07;;;;;;;;;3.00;3.00;;;;;24.62;57.74;100624.59;5078850;28;45346;-59
2021/09/10 01:55:33;;;;;;;;;3.50;3.00;;;;;24.61;57.92;100616.59;5084774;27;45333;-58
2021/09/10 01:58:00;;;;;;;;;1.25;1.25;;;;;24.61;57.74;100620.16;5085345;27;47351;-59
2021/09/10 02:00:25;;;;;;;;;3.00;3.00;;;;;24.62;57.89;100619.19;5076067;28;45809;-59
2021/09/10 02:02:51;;;;;;;;;5.00;3.00;;;;;24.62;57.81;100619.19;5059824;28;45240;-59
2021/09/10 02:05:16;;;;;;;;;3.00;3.00;;;;;24.61;57.49;100622.88;5060905;28;45343;-59
2021/09/10 02:07:42;;;;;;;;;4.00;3.33;;;;;24.59;57.64;100619.44;5080494;27;47426;-58
2021/09/10 02:10:10;;;;;;;;;5.00;4.00;;;;;24.59;57.90;100615.84;5078122;28;45381;-59
2021/09/10 02:12:37;;;;;;;;;4.00;4.00;;;;;24.58;57.53;100627.69;5055947;28;45580;-58
2021/09/10 02:15:05;;;;;;;;;3.00;3.00;;;;;24.57;57.73;100623.28;5077601;28;45413;-59
2021/09/10 02:17:31;;;;;;;;;3.00;2.00;;;;;24.56;57.67;100627.84;5078156;28;47478;-58
2021/09/10 02:19:56;;;;;;;;;3.00;3.00;;;;;24.56;57.83;100633.25;5077654;28;45243;-58
2021/09/10 02:22:21;;;;;;;;;4.00;4.00;;;;;24.54;58.15;100629.81;5062502;28;46641;-58
2021/09/10 02:24:47;;;;;;;;;2.67;2.67;;;;;24.52;57.82;100623.66;5082053;28;45334;-58
2021/09/10 02:27:12;;;;;;;;;2.67;2.67;;;;;24.53;57.92;100635.38;5082099;28;47292;-58
2021/09/10 02:29:38;;;;;;;;;4.00;3.00;;;;;24.52;58.24;100631.78;5081681;27;45877;-59
2021/09/10 02:32:04;;;;;;;;;2.00;2.00;;;;;24.53;57.98;100629.94;5068325;27;45664;-58
2021/09/10 02:34:29;;;;;;;;;2.75;2.75;;;;;24.53;58.05;100629.94;5082098;28;45678;-58
2021/09/10 02:36:55;;;;;;;;;4.33;3.00;;;;;24.52;57.86;100634.50;5079683;27;47252;-58
2021/09/10 02:39:20;;;;;;;;;3.33;3.33;;;;;24.52;58.09;100628.19;5076801;27;45650;-58
2021/09/10 02:41:46;;;;;;;;;3.00;3.00;;;;;24.51;58.24;100632.75;5067994;28;45330;-59
2021/09/10 02:44:11;;;;;;;;;3.00;3.00;;;;;24.51;57.93;100637.31;5078588;28;45472;-59
2021/09/10 02:46:38;;;;;;;;;4.00;4.00;;;;;24.49;57.84;100629.31;5081237;27;48020;-59
2021/09/10 02:49:04;;;;;;;;;4.00;4.00;;;;;24.49;58.11;100621.16;5084232;27;45370;-59
2021/09/10 02:51:29;;;;;;;;;2.33;2.33;;;;;24.49;57.91;100623.88;5068911;28;45300;-59
2021/09/10 02:53:55;;;;;;;;;3.00;3.00;;;;;24.49;58.23;100623.88;5081993;27;45611;-59
2021/09/10 02:56:20;;;;;;;;;3.33;3.33;;;;;24.49;58.30;100623.03;5046070;28;47033;-58
2021/09/10 02:58:45;;;;;;;;;3.33;3.00;;;;;24.48;57.95;100627.59;5081380;27;45306;-59
2021/09/10 03:01:11;;;;;;;;;4.67;4.67;;;;;24.48;57.86;100629.44;5081577;28;45692;-59
2021/09/10 03:03:36;;;;;;;;;3.67;3.67;;;;;24.46;58.19;100621.41;5081793;28;45590;-59
2021/09/10 03:06:02;;;;;;;;;4.00;3.00;;;;;24.45;58.16;100614.28;5090416;27;47452;-59
2021/09/10 03:08:28;;;;;;;;;3.33;3.33;;;;;24.44;58.33;100614.41;5087690;27;46097;-59
2021/09/10 03:10:53;;;;;;;;;3.00;2.00;;;;;24.44;58.20;100617.13;5081514;28;45357;-59
2021/09/10 03:13:19;;;;;;;;;2.67;2.67;;;;;24.42;58.14;100613.66;5081914;28;45358;-59
2021/09/10 03:15:45;;;;;;;;;3.00;3.00;;;;;24.40;58.20;100605.66;5081046;27;47263;-59
2021/09/10 03:18:10;;;;;;;;;2.33;2.33;;;;;24.39;58.17;100603.03;5081331;27;45773;-58
2021/09/10 03:20:36;;;;;;;;;2.33;2.33;;;;;24.38;58.27;100601.31;5062914;28;45769;-59
2021/09/10 03:23:02;;;;;;;;;4.00;4.00;;;;;24.36;58.16;100602.31;5063081;28;45726;-58
2021/09/10 03:25:28;;;;;;;;;3.00;3.00;;;;;24.38;58.53;100609.47;5062816;28;47888;-59
2021/09/10 03:27:53;;;;;;;;;3.33;3.33;;;;;24.36;58.43;100610.44;5063254;28;45561;-59
2021/09/10 03:30:20;;;;;;;;;3.33;3.33;;;;;24.35;58.38;100610.56;5080892;28;45871;-59
2021/09/10 03:32:47;;;;;;;;;3.33;3.33;;;;;24.35;58.27;100610.56;5088250;27;45309;-56
2021/09/10 03:35:12;;;;;;;;;4.67;4.67;;;;;24.33;58.51;100613.41;5079627;28;47185;-59
2021/09/10 03:37:38;;;;;;;;;5.75;5.75;;;;;24.32;58.32;100616.25;5057772;28;45429;-46
2021/09/10 03:40:04;;;;;;;;;4.67;4.67;;;;;24.30;58.67;100612.81;5082420;27;45474;-46
2021/09/10 03:42:30;;;;;;;;;3.00;3.00;;;;;24.26;58.57;100604.00;5074591;27;45583;-52
2021/09/10 03:44:56;;;;;;;;;5.00;5.00;;;;;24.24;58.61;100602.41;5078823;27;47292;-51
2021/09/10 03:47:21;;;;;;;;;7.00;5.75;;;;;24.23;58.90;100614.25;5080577;27;45394;-60
2021/09/10 03:49:46;;;;;;;;;3.00;3.00;;;;;24.22;59.06;100610.66;5076678;27;45333;-60
2021/09/10 03:52:12;;;;;;;;;5.67;3.67;;;;;24.20;58.71;100611.78;5080970;27;45320;-60
2021/09/10 03:54:37;;;;;;;;;4.33;4.33;;;;;24.19;58.76;100607.34;5074011;27;47037;-61
2021/09/10 03:57:04;;;;;;;;;4.33;3.67;;;;;24.21;59.25;100608.09;5076596;27;45437;-60
2021/09/10 03:59:29;;;;;;;;;3.67;3.67;;;;;24.20;59.10;100607.22;5077666;27;46264;-63
2021/09/10 04:01:55;;;;;;;;;7.00;6.00;;;;;24.20;59.11;100607.22;5071338;27;45926;-60
2021/09/10 04:04:20;;;;;;;;;4.33;4.33;;;;;24.19;58.98;100601.94;5072673;27;47373;-61
2021/09/10 04:06:46;;;;;;;;;6.00;5.00;;;;;24.18;59.41;100605.63;5057510;28;45393;-62
2021/09/10 04:09:11;;;;;;;;;3.67;3.67;;;;;24.18;59.24;100605.63;5077902;27;45484;-61
2021/09/10 04:11:37;;;;;;;;;6.00;4.67;;;;;24.17;59.25;100609.31;5078918;27;45741;-61
2021/09/10 04:14:03;;;;;;;;;5.00;4.33;;;;;24.14;59.13;100607.72;5072551;27;45679;-62
2021/09/10 04:16:29;;;;;;;;;8.00;7.00;;;;;24.14;59.21;100613.16;5059830;28;45816;-63
2021/09/10 04:18:54;;;;;;;;;5.33;5.33;;;;;24.13;59.39;100615.97;5075601;27;45293;-61
2021/09/10 04:21:20;;;;;;;;;6.25;6.25;;;;;24.11;59.57;100615.22;5057149;28;45398;-61
2021/09/10 04:23:45;;;;;;;;;5.50;5.50;;;;;24.10;59.44;100627.06;5063371;28;46793;-61
2021/09/10 04:26:11;;;;;;;;;6.00;5.50;;;;;24.07;59.65;100620.91;5059381;28;45429;-61
2021/09/10 04:28:37;;;;;;;;;5.25;5.25;;;;;24.05;59.47;100620.16;5070864;27;45334;-61
2021/09/10 04:31:02;;;;;;;;;6.75;6.00;;;;;24.05;59.27;100619.31;5077205;27;45305;-62
2021/09/10 04:33:28;;;;;;;;;6.25;5.00;;;;;24.03;59.48;100622.13;5075725;28;47416;-62
2021/09/10 04:35:53;;;;;;;;;5.50;4.75;;;;;24.04;59.67;100620.28;5079770;28;45353;-61
2021/09/10 04:38:19;;;;;;;;;5.50;5.50;;;;;24.03;59.33;100619.44;5081066;27;45521;-60
2021/09/10 04:40:44;;;;;;;;;5.00;4.00;;;;;24.03;59.84;100618.56;5080898;27;45451;-61
2021/09/10 04:43:10;;;;;;;;;5.50;5.50;;;;;24.02;59.67;100614.13;5077247;28;47239;-61
2021/09/10 04:45:36;;;;;;;;;6.50;6.50;;;;;23.98;59.69;100618.91;5076817;28;45829;-61
2021/09/10 04:48:01;;;;;;;;;7.25;7.00;;;;;23.97;59.85;100616.31;5078332;28;45365;-61
2021/09/10 04:50:27;;;;;;;;;4.00;4.00;;;;;23.97;59.63;100619.03;5060364;28;45731;-61
2021/09/10 04:52:53;;;;;;;;;9.00;9.00;;;;;23.97;59.82;100619.03;5061215;28;47483;-61
2021/09/10 04:55:18;;;;;;;;;7.25;6.75;;;;;23.97;60.19;100616.31;5081438;27;46125;-61
2021/09/10 04:57:44;;;;;;;;;4.50;4.00;;;;;23.98;59.65;100621.63;5058701;28;45796;-61
2021/09/10 05:00:10;;;;;;;;;6.25;6.00;;;;;23.98;59.55;100621.63;5078776;28;45598;-62
2021/09/10 05:02:37;;;;;;;;;5.25;5.25;;;;;23.98;59.55;100627.03;5072756;27;47917;-61
2021/09/10 05:05:04;;;;;;;;;5.25;5.25;;;;;23.97;59.48;100629.88;5077231;28;45487;-61
2021/09/10 05:07:30;;;;;;;;;5.00;4.50;;;;;23.98;59.47;100623.47;5077390;27;45311;-60
2021/09/10 05:09:55;;;;;;;;;5.67;5.67;;;;;24.00;59.54;100629.63;5079582;27;45436;-61
2021/09/10 05:12:21;;;;;;;;;5.50;5.50;;;;;23.99;60.01;100634.19;5078140;27;47022;-60
2021/09/10 05:14:51;;;;;;;;;6.25;5.25;;;;;24.00;59.87;100632.34;5077219;27;45327;-60
2021/09/10 05:17:17;;;;;;;;;5.75;4.25;;;;;24.01;59.86;100634.97;5078876;28;45638;-63
2021/09/10 05:19:42;;;;;;;;;6.00;4.50;;;;;24.03;59.62;100630.28;5074242;28;45567;-61
2021/09/10 05:22:08;;;;;;;;;4.75;4.75;;;;;24.05;59.92;100633.72;5077370;28;48145;-61
2021/09/10 05:24:33;;;;;;;;;5.67;5.00;;;;;24.08;59.77;100643.44;5072188;28;45819;-61
2021/09/10 05:26:59;;;;;;;;;5.75;5.75;;;;;24.09;59.85;100642.47;5073748;27;45566;-61
2021/09/10 05:29:24;;;;;;;;;4.50;4.50;;;;;24.12;59.35;100655.75;5074843;27;45381;-62
2021/09/10 05:31:50;;;;;;;;;4.00;4.00;;;;;24.14;59.79;100645.69;5072290;27;47180;-61
2021/09/10 05:34:15;;;;;;;;;4.50;4.50;;;;;24.15;59.46;100644.69;5078475;27;45451;-62
2021/09/10 05:36:40;;;;;;;;;7.25;6.50;;;;;24.17;59.65;100647.28;5078273;28;45434;-60
2021/09/10 05:39:06;;;;;;;;;7.75;6.00;;;;;24.17;59.52;100648.16;5060122;28;45792;-62
2021/09/10 05:41:31;;;;;;;;;5.00;5.00;;;;;24.18;59.46;100654.44;5053230;28;48473;-62
2021/09/10 05:43:57;;;;;;;;;7.00;7.00;;;;;24.18;59.89;100663.44;5072949;28;45401;-61
2021/09/10 05:46:23;;;;;;;;;4.75;4.75;;;;;24.19;59.36;100661.56;5079044;27;45360;-61
2021/09/10 05:48:48;;;;;;;;;6.00;4.25;;;;;24.20;59.70;100672.31;5078196;27;46043;-61
2021/09/10 05:51:14;;;;;;;;;6.00;6.00;;;;;24.22;59.48;100675.75;5059997;28;48237;-61
2021/09/10 05:53:39;;;;;;;;;8.75;5.00;;;;;24.24;59.39;100673.78;5078457;27;45433;-61
2021/09/10 05:56:06;;;;;;;;;7.00;7.00;;;;;24.23;59.31;100673.91;5078178;28;45301;-61
2021/09/10 05:58:31;;;;;;;;;6.75;6.75;;;;;24.22;58.97;100681.16;5078938;28;45395;-61
2021/09/10 06:00:57;;;;;;;;;6.00;4.50;;;;;24.21;59.36;100684.00;5074208;28;46992;-61
2021/09/10 06:03:22;;;;;;;;;4.33;4.33;;;;;24.20;59.14;100685.88;5085431;27;45465;-61
2021/09/10 06:05:48;;;;;;;;;4.00;4.00;;;;;24.18;58.96;100695.09;5078253;27;45450;-60
2021/09/10 06:08:14;;;;;;;;;4.00;4.00;;;;;24.18;59.06;100695.09;5078501;27;45456;-61
2021/09/10 06:10:41;;;;;;;;;6.75;6.00;;;;;24.18;59.36;100690.53;5078546;28;45416;-61
2021/09/10 06:13:06;;;;;;;;;3.50;3.50;;;;;24.17;59.23;100698.81;5078641;28;45560;-61
2021/09/10 06:15:32;;;;;;;;;6.00;4.50;;;;;24.16;59.04;100692.53;5061634;27;45500;-62
2021/09/10 06:17:57;;;;;;;;;4.00;4.00;;;;;24.16;59.46;100694.38;5066711;27;45546;-61
2021/09/10 06:20:23;;;;;;;;;6.75;6.00;;;;;24.14;58.97;100699.91;5083390;27;47130;-61
2021/09/10 06:22:48;;;;;;;;;5.00;5.00;;;;;24.13;58.86;100700.00;5077427;27;45481;-60
2021/09/10 06:25:14;;;;;;;;;6.50;6.50;;;;;24.12;59.15;100696.44;5077550;27;45671;-61
2021/09/10 06:27:41;;;;;;;;;5.50;5.50;;;;;24.13;58.78;100700.00;5077958;28;45488;-60
2021/09/10 06:30:07;;;;;;;;;5.00;5.00;;;;;24.11;58.95;100693.84;5077439;28;47236;-60
2021/09/10 06:32:33;;;;;;;;;3.50;3.50;;;;;24.11;59.14;100699.28;5077735;27;46159;-61
2021/09/10 06:34:59;;;;;;;;;3.50;3.50;;;;;24.09;59.01;100696.69;5059373;28;45714;-60
2021/09/10 06:37:25;;;;;;;;;5.25;5.25;;;;;24.08;59.24;100706.66;5063776;28;45416;-60
2021/09/10 06:39:51;;;;;;;;;4.75;4.75;;;;;24.10;59.24;100700.25;5079048;27;48073;-62
2021/09/10 06:42:16;;;;;;;;;6.50;6.25;;;;;24.10;59.23;100714.69;5078195;28;45343;-61
2021/09/10 06:44:42;;;;;;;;;7.75;6.50;;;;;24.10;59.21;100714.69;5077418;28;45763;-60
2021/09/10 06:47:07;;;;;;;;;8.50;8.50;;;;;24.08;59.31;100709.38;5077496;27;45500;-60
2021/09/10 06:49:33;;;;;;;;;5.75;5.75;;;;;24.10;59.07;100716.53;5074561;27;47296;-61
2021/09/10 06:51:59;;;;;;;;;6.25;6.00;;;;;24.11;59.26;100719.13;5077353;27;45428;-61
2021/09/10 06:54:24;;;;;;;;;3.67;3.67;;;;;24.12;59.34;100726.25;5077745;27;45741;-61
2021/09/10 06:56:50;;;;;;;;;5.50;5.50;;;;;24.14;59.67;100724.31;5077662;28;45367;-61
2021/09/10 06:59:19;;;;;;;;;8.00;8.00;;;;;24.14;59.33;100731.56;5077652;27;47672;-61
2021/09/10 07:01:46;;;;;;;;;8.25;8.25;;;;;24.16;59.47;100725.06;5059442;28;45339;-62
2021/09/10 07:04:11;;;;;;;;;5.00;5.00;;;;;24.20;59.23;100722.97;5077113;27;45448;-60
2021/09/10 07:06:37;;;;;;;;;7.50;6.00;;;;;24.22;59.50;100726.41;5077631;27;45556;-61
2021/09/10 07:09:02;;;;;;;;;5.25;5.25;;;;;24.24;59.32;100730.72;5078210;27;47054;-60
2021/09/10 07:11:29;;;;;;;;;4.25;4.25;;;;;24.25;58.74;100724.31;5068916;28;45369;-60
2021/09/10 07:13:54;;;;;;;;;7.75;7.75;;;;;24.26;59.10;100733.31;5085483;27;45346;-60
2021/09/10 07:16:20;;;;;;;;;7.00;7.00;;;;;24.24;58.96;100735.28;5085034;27;45774;-60
2021/09/10 07:18:45;;;;;;;;;6.00;5.50;;;;;24.24;58.94;100743.41;5076937;27;48158;-60
2021/09/10 07:21:11;;;;;;;;;5.50;5.50;;;;;24.22;58.84;100742.69;5080336;27;45342;-59
2021/09/10 07:23:36;;;;;;;;;7.75;6.25;;;;;24.19;59.28;100742.94;5079939;27;45376;-60
2021/09/10 07:26:03;;;;;;;;;6.00;6.00;;;;;24.17;59.43;100740.34;5080348;27;45857;-59
2021/09/10 07:28:34;;;;;;;;;6.75;5.00;;;;;24.18;59.08;100744.78;5080725;27;47542;-61
2021/09/10 07:31:01;;;;;;;;;6.25;6.00;;;;;24.18;59.18;100739.34;5078525;27;45437;-60
2021/09/10 07:33:27;;;;;;;;;5.25;4.75;;;;;24.17;59.18;100750.31;5080234;27;45391;-60
2021/09/10 07:35:53;;;;;;;;;6.00;6.00;;;;;24.17;58.93;100740.34;5080743;27;45995;-59
2021/09/10 07:38:19;;;;;;;;;5.00;5.00;;;;;24.17;59.25;100742.19;5077319;27;47299;-59
2021/09/10 07:40:45;;;;;;;;;6.00;6.00;;;;;24.18;59.25;100738.50;5079104;27;45674;-58
2021/09/10 07:43:11;;;;;;;;;8.00;8.00;;;;;24.18;59.18;100743.91;5062298;27;45261;-59
2021/09/10 07:45:36;;;;;;;;;8.25;7.00;;;;;24.19;59.20;100748.34;5077651;27;45376;-59
2021/09/10 07:48:02;;;;;;;;;7.25;6.50;;;;;24.19;59.30;100754.63;5075003;27;47293;-59
2021/09/10 07:50:28;;;;;;;;;4.33;4.33;;;;;24.19;58.99;100751.06;5061570;28;45712;-59
2021/09/10 07:52:54;;;;;;;;;7.25;7.25;;;;;24.21;59.00;100759.94;5079850;27;45487;-59
2021/09/10 07:55:19;;;;;;;;;7.50;6.00;;;;;24.21;59.11;100758.09;5080238;27;45540;-59
2021/09/10 07:57:44;;;;;;;;;6.50;6.50;;;;;24.26;59.29;100760.44;5052504;27;48519;-59
2021/09/10 08:00:10;;;;;;;;;6.25;6.25;;;;;24.29;58.94;100762.94;5061177;28;45497;-59
2021/09/10 08:02:39;;;;;;;;;6.00;6.00;;;;;24.31;59.07;100766.41;5080245;27;45362;-58
2021/09/10 08:05:05;;;;;;;;;8.00;8.00;;;;;24.33;58.94;100759.00;5079692;27;45437;-58
2021/09/10 08:07:31;;;;;;;;;5.50;5.50;;;;;24.34;58.95;100764.31;5079399;27;47247;-59
2021/09/10 08:09:56;;;;;;;;;6.25;5.75;;;;;24.36;58.59;100770.47;5079583;27;45531;-58
2021/09/10 08:12:22;;;;;;;;;5.00;5.00;;;;;24.36;58.79;100775.91;5079669;27;45612;-58
2021/09/10 08:14:47;;;;;;;;;6.00;6.00;;;;;24.38;59.03;100775.78;5080314;27;45648;-58
2021/09/10 08:17:13;;;;;;;;;8.00;7.75;;;;;24.42;59.19;100780.00;5093674;27;47248;-59
2021/09/10 08:19:38;;;;;;;;;7.50;7.00;;;;;24.48;58.74;100789.50;5079335;27;45364;-59
2021/09/10 08:22:04;;;;;;;;;8.00;8.00;;;;;24.50;58.57;100780.25;5061403;27;45440;-59
2021/09/10 08:24:30;;;;;;;;;9.00;9.00;;;;;24.53;58.81;100780.03;5079883;27;45417;-59
2021/09/10 08:26:55;;;;;;;;;6.67;6.67;;;;;24.57;58.72;100783.34;5061202;27;48302;-59
2021/09/10 08:29:21;;;;;;;;;8.00;8.00;;;;;24.61;58.45;100785.69;5060830;27;46091;-59
2021/09/10 08:31:47;;;;;;;;;8.00;7.00;;;;;24.68;58.91;100779.78;5084750;27;45401;-59
2021/09/10 08:34:12;;;;;;;;;7.33;7.33;;;;;24.74;58.68;100791.00;5061326;28;45530;-59
2021/09/10 08:36:38;;;;;;;;;5.00;5.00;;;;;24.80;57.75;100784.25;5079911;27;46489;-59
2021/09/10 08:39:03;;;;;;;;;4.33;4.33;;;;;24.86;57.79;100786.44;5059970;28;45724;-59
2021/09/10 08:41:33;;;;;;;;;6.25;6.25;;;;;24.91;58.16;100792.38;5062975;28;45379;-59
2021/09/10 08:44:03;;;;;;;;;7.00;7.00;;;;;24.95;57.63;100788.44;5061490;27;45883;-59
2021/09/10 08:46:28;;;;;;;;;4.25;4.25;;;;;24.99;57.49;100794.47;5058158;28;47061;-59
2021/09/10 08:48:54;;;;;;;;;5.50;5.50;;;;;25.01;57.41;100798.81;5078828;27;45318;-59
2021/09/10 08:51:20;;;;;;;;;5.25;5.25;;;;;25.08;57.25;100793.75;5060616;28;45297;-59
2021/09/10 08:53:45;;;;;;;;;9.25;6.50;;;;;25.15;56.71;100797.69;5080068;27;45412;-60
2021/09/10 08:56:11;;;;;;;;;6.75;6.50;;;;;25.18;57.07;100792.91;5078818;27;46219;-59
2021/09/10 08:58:37;;;;;;;;;4.50;4.50;;;;;25.24;56.83;100796.94;5060796;28;45624;-59
2021/09/10 09:01:03;;;;;;;;;5.00;5.00;;;;;25.30;56.61;100793.75;5059963;28;45515;-59
2021/09/10 09:03:30;;;;;;;;;4.00;4.00;;;;;25.32;56.04;100797.19;5079262;28;45690;-59
2021/09/10 09:05:56;;;;;;;;;4.75;4.25;;;;;25.36;55.64;100792.38;5078775;27;48102;-59
2021/09/10 09:08:23;;;;;;;;;6.25;5.75;;;;;25.38;55.71;100799.41;5078712;28;45450;-58
2021/09/10 09:11:02;;;;;;;;;7.00;5.00;;;;;25.43;55.47;100799.03;5079525;27;45393;-59
2021/09/10 09:13:37;;;;;;;;;4.67;4.67;;;;;25.45;55.50;100803.34;5063746;27;45936;-59
2021/09/10 09:16:26;;;;;;;;;4.50;4.50;;;;;25.47;55.78;100806.78;5083641;27;47919;-59
2021/09/10 09:18:57;;;;;;;;;5.00;4.00;;;;;25.47;55.57;100805.94;5078564;28;46038;-59
2021/09/10 09:21:30;;;;;;;;;5.00;4.00;;;;;25.47;55.09;100814.09;5059229;28;45343;-58
2021/09/10 09:23:59;;;;;;;;;4.00;4.00;;;;;25.45;54.99;100806.06;5059804;28;45536;-58
2021/09/10 09:26:27;;;;;;;;;5.50;5.50;;;;;25.42;55.14;100814.47;5059932;28;48156;-59
2021/09/10 09:29:13;;;;;;;;;5.50;5.50;;;;;25.41;55.06;100814.56;5059668;28;46001;-60
2021/09/10 09:31:40;;;;;;;;;5.00;5.00;;;;;25.43;55.31;100815.34;5061255;28;45602;-61
2021/09/10 09:34:07;;;;;;;;;5.00;5.00;;;;;25.47;55.21;100811.38;5078425;27;45800;-60
2021/09/10 09:36:33;;;;;;;;;6.00;6.00;;;;;25.48;55.07;100803.09;5077684;27;48420;-59
2021/09/10 09:39:08;;;;;;;;;5.33;5.33;;;;;25.50;55.28;100809.25;5078051;27;45339;-60
2021/09/10 09:41:41;;;;;;;;;5.33;5.33;;;;;25.53;54.73;100798.13;5080169;27;45350;-59
2021/09/10 09:44:13;;;;;;;;;5.00;5.00;;;;;25.58;54.63;100818.63;5078973;27;45576;-60
2021/09/10 09:46:40;;;;;;;;;5.00;5.00;;;;;25.59;54.81;100810.34;5059244;28;46493;-60
2021/09/10 09:49:14;;;;;;;;;6.00;4.67;;;;;25.65;54.39;100809.81;5077799;27;45422;-61
2021/09/10 09:52:02;;;;;;;;;3.67;3.67;;;;;25.72;54.40;100805.66;5078443;27;45623;-59
2021/09/10 09:54:29;;;;;;;;;4.00;4.00;;;;;25.76;54.23;100809.81;5060121;28;45432;-60
2021/09/10 09:56:55;;;;;;;;;4.00;4.00;;;;;25.83;54.01;100809.34;5077559;28;48115;-59
2021/09/10 09:59:20;;;;;;;;;4.67;4.67;;;;;25.84;53.67;100809.19;5077825;28;45353;-59
2021/09/10 10:01:46;;;;;;;;;5.00;5.00;;;;;25.85;53.69;100805.47;5082164;27;45727;-59
2021/09/10 10:04:11;;;;;;;;;5.00;5.00;;;;;25.89;54.17;100804.22;5058994;28;45713;-58
2021/09/10 10:06:39;;;;;;;;;5.00;5.00;;;;;25.90;53.87;100805.94;5059878;28;47798;-59
2021/09/10 10:09:11;;;;;;;;;6.00;4.67;;;;;25.89;53.11;100803.34;5059583;28;46124;-61
2021/09/10 10:11:46;;;;;;;;;4.00;4.00;;;;;25.87;53.47;100813.50;5078401;27;45299;-62
2021/09/10 10:14:14;;;;;;;;;3.00;3.00;;;;;25.88;53.04;100813.38;5074580;27;45377;-61
2021/09/10 10:16:45;;;;;;;;;4.00;4.00;;;;;25.85;53.80;100812.78;5081639;27;47212;-59
2021/09/10 10:19:20;;;;;;;;;3.67;3.00;;;;;25.80;53.65;100815.91;5078605;27;45452;-60
2021/09/10 10:21:54;;;;;;;;;3.00;3.00;;;;;25.77;53.10;100811.56;5077808;27;45366;-60
2021/09/10 10:24:57;;;;;;;;;5.33;4.00;;;;;25.82;53.36;100803.03;5078182;27;45742;-60
2021/09/10 10:27:34;;;;;;;;;7.00;7.00;;;;;25.91;53.09;100798.66;5069448;27;48860;-60
2021/09/10 10:30:05;;;;;;;;;5.00;5.00;;;;;25.96;52.70;100796.44;5077948;28;45391;-59
2021/09/10 10:32:37;;;;;;;;;3.33;3.33;;;;;25.98;52.76;100783.56;5083987;27;45628;-61
2021/09/10 10:35:21;;;;;;;;;5.00;5.00;;;;;25.92;52.84;100793.13;5077652;27;45444;-60
2021/09/10 10:37:51;;;;;;;;;4.33;4.33;;;;;25.85;52.31;100793.75;5077016;27;47442;-59
2021/09/10 10:40:45;;;;;;;;;4.00;4.00;;;;;25.77;52.89;100788.94;5071649;27;45401;-59
2021/09/10 10:43:12;;;;;;;;;4.00;4.00;;;;;25.71;52.86;100784.91;5079525;27;45318;-60
2021/09/10 10:45:46;;;;;;;;;5.00;5.00;;;;;25.65;52.54;100782.66;5080251;27;45691;-59
2021/09/10 10:48:32;;;;;;;;;6.00;6.00;;;;;25.64;53.01;100788.22;5080610;27;46622;-60
2021/09/10 10:51:13;;;;;;;;;5.33;4.67;;;;;25.67;53.12;100787.97;5078598;27;45677;-61
2021/09/10 10:53:44;;;;;;;;;3.00;3.00;;;;;25.74;52.56;100779.19;5078594;27;45499;-60
2021/09/10 10:56:25;;;;;;;;;4.00;4.00;;;;;25.84;52.41;100781.16;5081961;27;45389;-60
2021/09/10 10:59:13;;;;;;;;;5.00;3.50;;;;;25.95;52.14;100776.53;5077916;27;47672;-60
2021/09/10 11:02:19;;;;;;;;;4.75;4.75;;;;;26.08;52.53;100777.19;5062761;27;45524;-60
2021/09/10 11:05:01;;;;;;;;;5.67;4.00;;;;;26.14;52.21;100767.63;5079948;27;45376;-59
2021/09/10 11:07:29;;;;;;;;;5.33;4.00;;;;;26.20;52.42;100766.25;5081481;27;45609;-60
2021/09/10 11:10:16;;;;;;;;;3.33;3.33;;;;;26.28;52.01;100766.44;5077982;27;48374;-60
2021/09/10 11:12:45;;;;;;;;;2.67;2.67;;;;;26.35;50.95;100768.50;5080334;27;45440;-59
2021/09/10 11:15:18;;;;;;;;;4.00;4.00;;;;;26.37;51.21;100765.69;5089442;27;45307;-63
2021/09/10 11:17:43;;;;;;;;;5.25;5.25;;;;;26.39;51.10;100767.28;5070621;27;45359;-57
2021/09/10 11:20:10;;;;;;;;;3.75;3.00;;;;;26.42;50.86;100765.28;5080729;27;46147;-58
2021/09/10 11:22:48;;;;;;;;;5.00;5.00;;;;;26.42;50.28;100760.69;5063453;28;45395;-57
2021/09/10 11:25:14;;;;;;;;;5.00;5.00;;;;;26.45;50.15;100765.88;5045680;27;45564;-58